createdAt,value
2022-07-29T00:00:40.172Z,96095.88
2022-07-29T00:03:07.732Z,96093.41
2022-07-29T00:05:36.604Z,96093.81
2022-07-29T00:08:06.344Z,96086.38
2022-07-29T00:10:37.344Z,96092.59
2022-07-29T00:13:04.840Z,96091.06
2022-07-29T00:15:32.374Z,96092.69
2022-07-29T00:17:59.909Z,96094.09
2022-07-29T00:20:27.440Z,96106.84
2022-07-29T00:22:56.315Z,96104.59
2022-07-29T00:25:23.846Z,96102.00
2022-07-29T00:27:51.401Z,96100.03
2022-07-29T00:30:18.924Z,96091.59
2022-07-29T00:32:46.451Z,96085.63
2022-07-29T00:35:31.590Z,96088.34
2022-07-29T00:38:02.412Z,96084.50
2022-07-29T00:40:29.959Z,96086.69
2022-07-29T00:42:57.526Z,96091.19
2022-07-29T00:45:27.432Z,96088.53
2022-07-29T00:47:55.126Z,96083.09
2022-07-29T00:50:22.890Z,96078.59
2022-07-29T00:52:51.076Z,96079.69
2022-07-29T00:55:20.109Z,96081.25
2022-07-29T00:57:48.317Z,96069.78
2022-07-29T01:00:20.429Z,96073.63
2022-07-29T01:02:49.359Z,96068.69
2022-07-29T01:05:19.648Z,96060.31
2022-07-29T01:07:48.560Z,96066.69
2022-07-29T01:10:17.942Z,96060.00
2022-07-29T01:12:50.026Z,96055.88
2022-07-29T01:15:18.237Z,96059.28
2022-07-29T01:17:53.284Z,96064.94
2022-07-29T01:20:31.674Z,96053.41
2022-07-29T01:23:12.261Z,96057.09
2022-07-29T01:26:05.954Z,96055.75
2022-07-29T01:29:00.590Z,96043.94
2022-07-29T01:31:51.359Z,96037.19
2022-07-29T01:34:33.033Z,96037.91
2022-07-29T01:37:09.188Z,96041.59
2022-07-29T01:39:39.313Z,96031.16
2022-07-29T01:42:12.020Z,96028.81
2022-07-29T01:44:50.323Z,96016.34
2022-07-29T01:47:22.301Z,96016.25
2022-07-29T01:49:53.177Z,96020.22
2022-07-29T01:52:25.534Z,96025.75
2022-07-29T01:54:57.132Z,96014.59
2022-07-29T01:57:30.329Z,96018.03
2022-07-29T02:00:01.498Z,96009.09
2022-07-29T02:02:31.436Z,96008.16
2022-07-29T02:05:01.602Z,96005.47
2022-07-29T02:07:33.856Z,96004.16
2022-07-29T02:10:03.717Z,95997.44
2022-07-29T02:12:33.661Z,95999.78
2022-07-29T02:15:06.376Z,96001.97
2022-07-29T02:17:40.981Z,95994.19
2022-07-29T02:20:11.126Z,96000.91
2022-07-29T02:22:40.968Z,95999.88
2022-07-29T02:25:14.226Z,95999.97
2022-07-29T02:27:43.622Z,95997.69
2022-07-29T02:30:14.630Z,96001.66
2022-07-29T02:32:44.307Z,95998.78
2022-07-29T02:35:16.370Z,95997.84
2022-07-29T02:37:46.574Z,96005.59
2022-07-29T02:40:17.235Z,96006.69
2022-07-29T02:42:47.328Z,96001.47
2022-07-29T02:45:16.195Z,96012.84
2022-07-29T02:47:45.872Z,96014.13
2022-07-29T02:50:17.441Z,96017.97
2022-07-29T02:52:46.952Z,96020.84
2022-07-29T02:55:21.067Z,96012.69
2022-07-29T02:57:53.875Z,96014.69
2022-07-29T03:00:28.882Z,96015.28
2022-07-29T03:03:00.468Z,96018.06
2022-07-29T03:05:29.279Z,96017.16
2022-07-29T03:07:59.090Z,96018.56
2022-07-29T03:10:27.242Z,96012.00
2022-07-29T03:12:57.181Z,96015.78
2022-07-29T03:15:26.738Z,96024.31
2022-07-29T03:17:54.885Z,96022.34
2022-07-29T03:20:22.872Z,96015.56
2022-07-29T03:22:50.772Z,96017.31
2022-07-29T03:25:20.739Z,96014.63
2022-07-29T03:27:49.776Z,96013.75
2022-07-29T03:30:21.591Z,96009.88
2022-07-29T03:32:52.526Z,96015.47
2022-07-29T03:35:20.487Z,96008.53
2022-07-29T03:37:48.309Z,96019.53
2022-07-29T03:40:23.915Z,96024.69
2022-07-29T03:42:55.182Z,96024.16
2022-07-29T03:45:23.994Z,96021.31
2022-07-29T03:48:00.653Z,96023.59
2022-07-29T03:50:30.581Z,96027.44
2022-07-29T03:52:58.358Z,96029.56
2022-07-29T03:55:26.456Z,96032.09
2022-07-29T03:57:54.856Z,96025.56
2022-07-29T04:00:23.511Z,96044.75
2022-07-29T04:02:51.929Z,96042.91
2022-07-29T04:05:21.093Z,96046.88
2022-07-29T04:07:49.510Z,96039.72
2022-07-29T04:10:30.335Z,96049.69
2022-07-29T04:13:00.386Z,96048.31
2022-07-29T04:15:31.457Z,96053.94
2022-07-29T04:17:59.501Z,96068.16
2022-07-29T04:20:28.533Z,96075.81
2022-07-29T04:22:56.158Z,96076.59
2022-07-29T04:25:23.978Z,96069.06
2022-07-29T04:28:04.026Z,96073.53
2022-07-29T04:30:33.097Z,96069.06
2022-07-29T04:33:01.703Z,96064.16
2022-07-29T04:35:30.938Z,96056.72
2022-07-29T04:38:07.024Z,96064.44
2022-07-29T04:40:35.502Z,96070.94
2022-07-29T04:43:06.243Z,96073.84
2022-07-29T04:45:33.758Z,96077.22
2022-07-29T04:48:01.263Z,96069.81
2022-07-29T04:50:30.308Z,96066.22
2022-07-29T04:52:57.816Z,96070.56
2022-07-29T04:55:25.842Z,96061.78
2022-07-29T04:57:53.362Z,96060.75
2022-07-29T05:00:20.876Z,96054.97
2022-07-29T05:02:48.416Z,96063.44
2022-07-29T05:05:15.921Z,96064.41
2022-07-29T05:07:44.791Z,96065.81
2022-07-29T05:10:12.670Z,96065.44
2022-07-29T05:12:40.182Z,96060.16
2022-07-29T05:15:08.836Z,96060.50
2022-07-29T05:17:36.365Z,96070.47
2022-07-29T05:20:04.180Z,96079.50
2022-07-29T05:22:31.733Z,96076.81
2022-07-29T05:25:03.282Z,96076.63
2022-07-29T05:27:34.512Z,96074.28
2022-07-29T05:30:02.012Z,96080.44
2022-07-29T05:32:29.763Z,96072.72
2022-07-29T05:34:57.269Z,96078.41
2022-07-29T05:37:24.804Z,96066.56
2022-07-29T05:39:56.735Z,96077.88
2022-07-29T05:42:31.640Z,96068.59
2022-07-29T05:44:59.227Z,96074.81
2022-07-29T05:47:26.881Z,96069.91
2022-07-29T05:49:54.916Z,96066.72
2022-07-29T05:52:23.101Z,96079.63
2022-07-29T05:54:50.646Z,96074.34
2022-07-29T05:57:19.258Z,96076.16
2022-07-29T05:59:48.969Z,96077.88
2022-07-29T06:02:17.392Z,96065.47
2022-07-29T06:04:45.655Z,96059.03
2022-07-29T06:07:13.236Z,96071.72
2022-07-29T06:09:40.847Z,96068.28
2022-07-29T06:12:08.592Z,96076.03
2022-07-29T06:14:37.049Z,96065.16
2022-07-29T06:17:06.410Z,96079.56
2022-07-29T06:19:36.313Z,96080.81
2022-07-29T06:22:04.182Z,96084.47
2022-07-29T06:24:31.769Z,96081.03
2022-07-29T06:26:59.503Z,96081.59
2022-07-29T06:29:27.073Z,96076.38
2022-07-29T06:31:54.613Z,96080.72
2022-07-29T06:34:23.480Z,96089.22
2022-07-29T06:36:51.477Z,96087.50
2022-07-29T06:39:20.345Z,96093.91
2022-07-29T06:41:49.795Z,96094.19
2022-07-29T06:44:17.767Z,96101.66
2022-07-29T06:46:45.733Z,96104.00
2022-07-29T06:49:14.914Z,96109.16
2022-07-29T06:51:43.821Z,96116.38
2022-07-29T06:54:11.340Z,96114.09
2022-07-29T06:56:42.080Z,96121.31
2022-07-29T06:59:11.360Z,96122.97
2022-07-29T07:01:39.446Z,96115.56
2022-07-29T07:04:07.626Z,96121.81
2022-07-29T07:06:35.425Z,96129.50
2022-07-29T07:09:04.758Z,96128.47
2022-07-29T07:11:32.519Z,96132.19
2022-07-29T07:14:03.556Z,96124.34
2022-07-29T07:16:32.208Z,96131.38
2022-07-29T07:19:00.079Z,96113.53
2022-07-29T07:21:30.307Z,96120.34
2022-07-29T07:23:58.208Z,96106.47
2022-07-29T07:26:27.970Z,96100.44
2022-07-29T07:28:55.510Z,96114.59
2022-07-29T07:31:23.344Z,96106.09
2022-07-29T07:33:50.860Z,96108.53
2022-07-29T07:36:18.330Z,96100.41
2022-07-29T07:38:45.804Z,96094.31
2022-07-29T07:41:13.260Z,96093.50
2022-07-29T07:43:42.330Z,96086.53
2022-07-29T07:46:09.895Z,96082.06
2022-07-29T07:48:37.520Z,96084.41
2022-07-29T07:51:05.116Z,96089.88
2022-07-29T07:53:32.707Z,96092.22
2022-07-29T07:56:10.419Z,96093.91
2022-07-29T07:58:39.386Z,96095.75
2022-07-29T08:01:08.465Z,96088.00
2022-07-29T08:03:36.288Z,96093.00
2022-07-29T08:06:04.354Z,96094.72
2022-07-29T08:08:31.814Z,96097.03
2022-07-29T08:11:00.603Z,96094.94
2022-07-29T08:13:31.355Z,96097.59
2022-07-29T08:16:01.167Z,96100.28
2022-07-29T08:18:32.627Z,96095.28
2022-07-29T08:21:00.737Z,96099.81
2022-07-29T08:23:45.742Z,96093.59
2022-07-29T08:26:16.663Z,96103.53
2022-07-29T08:28:46.855Z,96103.09
2022-07-29T08:31:15.316Z,96096.88
2022-07-29T08:33:44.563Z,96097.97
2022-07-29T08:36:13.943Z,96099.34
2022-07-29T08:38:41.416Z,96106.44
2022-07-29T08:41:09.094Z,96114.34
2022-07-29T08:43:38.317Z,96110.84
2022-07-29T08:46:06.276Z,96108.56
2022-07-29T08:48:35.222Z,96108.59
2022-07-29T08:51:04.754Z,96110.00
2022-07-29T08:53:33.769Z,96104.63
2022-07-29T08:56:01.618Z,96104.00
2022-07-29T08:58:36.558Z,96096.84
2022-07-29T09:01:06.844Z,96098.16
2022-07-29T09:03:38.665Z,96099.13
2022-07-29T09:06:07.690Z,96102.09
2022-07-29T09:08:35.754Z,96105.47
2022-07-29T09:11:05.390Z,96091.13
2022-07-29T09:13:33.424Z,96092.06
2022-07-29T09:16:04.479Z,96092.81
2022-07-29T09:18:36.607Z,96088.81
2022-07-29T09:21:22.894Z,96093.44
2022-07-29T09:24:08.624Z,96099.63
2022-07-29T09:26:40.449Z,96089.59
2022-07-29T09:29:11.662Z,96096.09
2022-07-29T09:31:41.104Z,96083.59
2022-07-29T09:34:09.331Z,96085.53
2022-07-29T09:36:41.314Z,96077.78
2022-07-29T09:39:10.228Z,96085.13
2022-07-29T09:41:48.449Z,96080.47
2022-07-29T09:44:16.661Z,96082.88
2022-07-29T09:46:56.070Z,96078.09
2022-07-29T09:49:23.805Z,96072.59
2022-07-29T09:52:01.917Z,96074.78
2022-07-29T09:54:35.393Z,96078.50
2022-07-29T09:57:02.920Z,96070.25
2022-07-29T09:59:30.388Z,96070.84
2022-07-29T10:01:58.671Z,96066.59
2022-07-29T10:04:37.904Z,96064.31
2022-07-29T10:07:05.978Z,96063.13
2022-07-29T10:09:35.258Z,96060.94
2022-07-29T10:12:11.847Z,96061.53
2022-07-29T10:14:40.208Z,96063.06
2022-07-29T10:17:09.024Z,96058.94
2022-07-29T10:19:37.895Z,96057.63
2022-07-29T10:22:07.349Z,96057.72
2022-07-29T10:24:38.215Z,96044.19
2022-07-29T10:27:07.787Z,96054.88
2022-07-29T10:29:36.683Z,96050.03
2022-07-29T10:32:31.936Z,96054.03
2022-07-29T10:35:29.027Z,96051.59
2022-07-29T10:38:29.240Z,96046.84
2022-07-29T10:41:26.222Z,96043.25
2022-07-29T10:43:56.375Z,96044.25
2022-07-29T10:46:25.672Z,96039.78
2022-07-29T10:49:15.745Z,96045.41
2022-07-29T10:52:03.559Z,96034.09
2022-07-29T10:54:45.991Z,96030.25
2022-07-29T10:57:21.411Z,96029.66
2022-07-29T11:00:29.912Z,96029.91
2022-07-29T11:02:59.189Z,96026.44
2022-07-29T11:05:32.226Z,96020.31
2022-07-29T11:08:26.442Z,96012.75
2022-07-29T11:11:34.905Z,96027.25
2022-07-29T11:14:03.853Z,96017.31
2022-07-29T11:17:06.250Z,96010.59
2022-07-29T11:19:35.771Z,96017.91
2022-07-29T11:22:03.888Z,96016.28
2022-07-29T11:24:34.849Z,96017.66
2022-07-29T11:27:18.349Z,96013.22
2022-07-29T11:29:54.027Z,96014.03
2022-07-29T11:32:24.177Z,96008.09
2022-07-29T11:35:18.126Z,96009.34
2022-07-29T11:40:34.089Z,96001.84
2022-07-29T11:43:01.602Z,96006.13
2022-07-29T11:45:48.586Z,96012.00
2022-07-29T11:51:13.297Z,96018.28
2022-07-29T11:53:41.502Z,96021.56
2022-07-29T11:56:17.076Z,96017.41
2022-07-29T11:58:44.761Z,96008.28
2022-07-29T12:01:19.279Z,96016.91
2022-07-29T12:03:46.855Z,96010.53
2022-07-29T12:06:17.468Z,96021.47
2022-07-29T12:07:01.664Z,96012.59
2022-07-29T12:08:47.557Z,96020.53
2022-07-29T12:11:20.958Z,96016.63
2022-07-29T12:13:49.939Z,96001.72
2022-07-29T12:16:27.961Z,96007.50
2022-07-29T12:18:59.469Z,96002.75
2022-07-29T12:21:29.024Z,95991.66
2022-07-29T12:24:05.973Z,96002.88
2022-07-29T12:26:37.508Z,96007.38
2022-07-29T12:29:11.344Z,96015.28
2022-07-29T12:31:45.466Z,96009.38
2022-07-29T12:34:13.765Z,96016.84
2022-07-29T12:36:42.214Z,96012.34
2022-07-29T12:39:10.159Z,96019.78
2022-07-29T12:41:37.757Z,96014.97
2022-07-29T12:44:05.698Z,96009.94
2022-07-29T12:46:33.300Z,96015.94
2022-07-29T12:49:04.172Z,96014.88
2022-07-29T12:51:33.006Z,96013.50
2022-07-29T12:54:05.628Z,96018.41
2022-07-29T12:56:42.616Z,96010.59
2022-07-29T12:59:16.216Z,96024.84
2022-07-29T13:01:43.946Z,96025.28
2022-07-29T13:04:12.857Z,96008.94
2022-07-29T13:06:42.584Z,95998.94
2022-07-29T13:09:15.369Z,95994.41
2022-07-29T13:11:48.335Z,95988.09
2022-07-29T13:14:31.979Z,95988.47
2022-07-29T13:17:03.992Z,95986.41
2022-07-29T13:19:38.776Z,95989.16
2022-07-29T13:22:06.763Z,95981.84
2022-07-29T13:24:34.346Z,95978.31
2022-07-29T13:27:01.884Z,95974.53
2022-07-29T13:29:33.301Z,95975.34
2022-07-29T13:32:01.125Z,95978.00
2022-07-29T13:34:29.215Z,95969.09
2022-07-29T13:36:58.048Z,95964.72
2022-07-29T13:39:25.540Z,95959.47
2022-07-29T13:41:57.487Z,95970.56
2022-07-29T13:44:25.284Z,95965.25
2022-07-29T13:46:52.804Z,95964.91
2022-07-29T13:49:20.341Z,95974.47
2022-07-29T13:51:47.883Z,95985.94
2022-07-29T13:54:16.839Z,95967.66
2022-07-29T13:56:44.375Z,95970.06
2022-07-29T13:59:14.495Z,95964.63
2022-07-29T14:01:43.016Z,95968.44
2022-07-29T14:04:12.278Z,95965.13
2022-07-29T14:06:40.608Z,95966.63
2022-07-29T14:09:09.568Z,95963.38
2022-07-29T14:11:39.296Z,95960.19
2022-07-29T14:14:06.958Z,95960.69
2022-07-29T14:16:37.084Z,95950.03
2022-07-29T14:19:08.145Z,95961.16
2022-07-29T14:21:36.538Z,95961.28
2022-07-29T14:24:05.112Z,95955.56
2022-07-29T14:26:46.974Z,95947.44
2022-07-29T14:29:14.550Z,95949.88
2022-07-29T14:31:43.976Z,95940.34
2022-07-29T14:34:11.804Z,95938.16
2022-07-29T14:36:39.388Z,95950.47
2022-07-29T14:39:06.891Z,95951.81
2022-07-29T14:41:34.563Z,95948.19
2022-07-29T14:44:03.402Z,95944.97
2022-07-29T14:46:30.989Z,95949.31
2022-07-29T14:48:58.635Z,95951.34
2022-07-29T14:51:32.184Z,95941.88
2022-07-29T14:54:00.255Z,95940.44
2022-07-29T14:56:36.914Z,95939.00
2022-07-29T14:59:06.805Z,95935.22
2022-07-29T15:01:34.372Z,95940.09
2022-07-29T15:04:01.997Z,95940.97
2022-07-29T15:06:29.736Z,95944.09
2022-07-29T15:08:57.237Z,95938.13
2022-07-29T15:11:24.752Z,95936.28
2022-07-29T15:13:52.242Z,95953.84
2022-07-29T15:16:21.107Z,95955.75
2022-07-29T15:18:48.669Z,95952.53
2022-07-29T15:21:16.395Z,95953.13
2022-07-29T15:23:43.876Z,95958.13
2022-07-29T15:26:11.444Z,95950.19
2022-07-29T15:28:38.922Z,95957.50
2022-07-29T15:31:06.431Z,95955.50
2022-07-29T15:33:35.325Z,95961.53
2022-07-29T15:36:02.829Z,95974.34
2022-07-29T15:38:30.348Z,95974.34
2022-07-29T15:40:57.939Z,95978.09
2022-07-29T15:43:26.530Z,95980.25
2022-07-29T15:46:12.963Z,95969.16
2022-07-29T15:48:41.865Z,95970.53
2022-07-29T15:51:09.535Z,95975.91
2022-07-29T15:53:37.052Z,95974.84
2022-07-29T15:56:04.822Z,95967.66
2022-07-29T15:58:32.374Z,95977.94
2022-07-29T16:00:59.907Z,95970.47
2022-07-29T16:03:27.500Z,95973.31
2022-07-29T16:05:56.326Z,95963.69
2022-07-29T16:08:23.783Z,95972.56
2022-07-29T16:10:51.320Z,95968.31
2022-07-29T16:13:19.088Z,95981.63
2022-07-29T16:16:02.706Z,95985.00
2022-07-29T16:18:30.813Z,95995.34
2022-07-29T16:21:00.157Z,95987.34
2022-07-29T16:23:27.627Z,95996.59
2022-07-29T16:25:59.998Z,95997.63
2022-07-29T16:28:28.314Z,95998.34
2022-07-29T16:30:55.784Z,95996.06
2022-07-29T16:33:23.493Z,95999.59
2022-07-29T16:35:51.261Z,95997.50
2022-07-29T16:38:20.232Z,95998.09
2022-07-29T16:40:47.694Z,95992.44
2022-07-29T16:43:15.211Z,95989.94
2022-07-29T16:45:46.176Z,95997.09
2022-07-29T16:48:14.732Z,95991.34
2022-07-29T16:50:43.276Z,95998.25
2022-07-29T16:53:11.468Z,95996.31
2022-07-29T16:55:42.415Z,96005.19
2022-07-29T16:58:10.597Z,96014.97
2022-07-29T17:00:38.810Z,96012.44
2022-07-29T17:03:06.599Z,96013.88
2022-07-29T17:05:52.214Z,96003.84
2022-07-29T17:08:21.900Z,96010.69
2022-07-29T17:10:51.280Z,96024.56
2022-07-29T17:13:18.760Z,96020.88
2022-07-29T17:15:46.214Z,96023.06
2022-07-29T17:18:13.739Z,96024.88
2022-07-29T17:20:41.922Z,96026.19
2022-07-29T17:23:09.411Z,96028.13
2022-07-29T17:25:36.960Z,96028.72
2022-07-29T17:28:05.923Z,96033.91
2022-07-29T17:30:33.376Z,96021.78
2022-07-29T17:33:00.856Z,96026.94
2022-07-29T17:35:46.016Z,96023.97
2022-07-29T17:38:13.516Z,96025.34
2022-07-29T17:40:41.040Z,96029.06
2022-07-29T17:43:10.167Z,96048.53
2022-07-29T17:45:49.948Z,96043.72
2022-07-29T17:48:18.871Z,96048.69
2022-07-29T17:50:47.246Z,96050.47
2022-07-29T17:53:16.606Z,96056.75
2022-07-29T17:55:45.548Z,96051.63
2022-07-29T17:58:14.476Z,96057.78
2022-07-29T18:00:42.194Z,96064.94
2022-07-29T18:03:10.157Z,96063.50
2022-07-29T18:05:37.798Z,96071.81
2022-07-29T18:08:05.877Z,96082.69
2022-07-29T18:10:33.523Z,96100.41
2022-07-29T18:13:01.030Z,96092.31
2022-07-29T18:15:29.891Z,96096.63
2022-07-29T18:17:58.141Z,96094.59
2022-07-29T18:20:25.920Z,96097.13
2022-07-29T18:22:53.617Z,96089.22
2022-07-29T18:25:21.220Z,96095.06
2022-07-29T18:27:48.779Z,96098.34
2022-07-29T18:30:16.408Z,96096.06
2022-07-29T18:33:05.012Z,96090.59
2022-07-29T18:35:33.001Z,96096.22
2022-07-29T18:38:03.059Z,96090.22
2022-07-29T18:40:31.348Z,96089.56
2022-07-29T18:42:59.084Z,96090.78
2022-07-29T18:45:28.749Z,96077.75
2022-07-29T18:47:57.880Z,96089.72
2022-07-29T18:50:29.383Z,96092.25
2022-07-29T18:52:58.681Z,96087.09
2022-07-29T18:55:27.043Z,96095.09
2022-07-29T18:57:57.153Z,96105.41
2022-07-29T19:00:26.416Z,96098.97
2022-07-29T19:02:54.357Z,96109.63
2022-07-29T19:05:23.964Z,96109.38
2022-07-29T19:07:51.548Z,96109.63
2022-07-29T19:10:19.234Z,96107.41
2022-07-29T19:12:46.762Z,96113.94
2022-07-29T19:15:20.464Z,96111.84
2022-07-29T19:17:48.541Z,96116.78
2022-07-29T19:20:16.598Z,96123.91
2022-07-29T19:22:45.564Z,96128.16
2022-07-29T19:25:13.231Z,96135.00
2022-07-29T19:27:42.731Z,96139.53
2022-07-29T19:30:11.230Z,96148.22
2022-07-29T19:32:38.818Z,96149.56
2022-07-29T19:35:25.553Z,96148.25
2022-07-29T19:37:56.313Z,96150.66
2022-07-29T19:40:23.855Z,96153.13
2022-07-29T19:42:52.745Z,96152.63
2022-07-29T19:45:21.177Z,96150.13
2022-07-29T19:47:49.644Z,96152.16
2022-07-29T19:50:17.863Z,96161.78
2022-07-29T19:52:47.318Z,96160.59
2022-07-29T19:55:16.462Z,96173.78
2022-07-29T19:57:46.902Z,96171.38
2022-07-29T20:00:15.932Z,96174.56
2022-07-29T20:02:43.716Z,96180.66
2022-07-29T20:05:12.158Z,96174.47
2022-07-29T20:07:40.609Z,96190.78
2022-07-29T20:10:09.837Z,96199.94
2022-07-29T20:12:39.021Z,96203.69
2022-07-29T20:15:08.434Z,96200.47
2022-07-29T20:17:39.786Z,96196.88
2022-07-29T20:20:09.453Z,96199.72
2022-07-29T20:22:37.324Z,96204.88
2022-07-29T20:25:05.903Z,96206.09
2022-07-29T20:27:36.760Z,96209.72
2022-07-29T20:30:07.199Z,96214.28
2022-07-29T20:32:35.495Z,96208.81
2022-07-29T20:35:03.053Z,96217.53
2022-07-29T20:37:30.670Z,96211.38
2022-07-29T20:39:58.179Z,96209.75
2022-07-29T20:42:25.961Z,96209.72
2022-07-29T20:44:53.902Z,96211.66
2022-07-29T20:47:23.187Z,96210.97
2022-07-29T20:49:51.067Z,96215.44
2022-07-29T20:52:19.616Z,96208.97
2022-07-29T20:54:47.376Z,96217.69
2022-07-29T20:57:14.885Z,96216.03
2022-07-29T20:59:45.824Z,96218.16
2022-07-29T21:02:13.499Z,96212.56
2022-07-29T21:04:43.600Z,96215.81
2022-07-29T21:07:11.113Z,96215.47
2022-07-29T21:09:38.624Z,96229.13
2022-07-29T21:12:07.100Z,96228.78
2022-07-29T21:14:47.803Z,96227.09
2022-07-29T21:17:16.588Z,96219.22
2022-07-29T21:19:46.987Z,96222.09
2022-07-29T21:22:14.607Z,96220.56
2022-07-29T21:24:42.109Z,96232.31
2022-07-29T21:27:27.604Z,96218.22
2022-07-29T21:29:55.388Z,96229.88
2022-07-29T21:32:30.164Z,96228.03
2022-07-29T21:34:59.426Z,96224.13
2022-07-29T21:37:26.998Z,96227.88
2022-07-29T21:39:54.533Z,96223.03
2022-07-29T21:42:22.084Z,96217.66
2022-07-29T21:44:49.662Z,96219.53
2022-07-29T21:47:17.180Z,96215.72
2022-07-29T21:49:46.386Z,96212.53
2022-07-29T21:52:15.584Z,96211.03
2022-07-29T21:54:45.728Z,96211.09
2022-07-29T21:57:13.268Z,96211.44
2022-07-29T21:59:40.843Z,96213.13
2022-07-29T22:02:08.653Z,96210.44
2022-07-29T22:04:36.578Z,96216.47
2022-07-29T22:07:04.449Z,96206.81
2022-07-29T22:09:33.514Z,96206.06
2022-07-29T22:12:02.531Z,96209.13
2022-07-29T22:14:30.073Z,96206.06
2022-07-29T22:16:58.735Z,96203.81
2022-07-29T22:19:27.410Z,96209.06
2022-07-29T22:21:55.198Z,96202.63
2022-07-29T22:24:22.721Z,96195.63
2022-07-29T22:26:51.609Z,96195.84
2022-07-29T22:29:19.270Z,96188.78
2022-07-29T22:31:46.778Z,96193.16
2022-07-29T22:34:14.379Z,96187.44
2022-07-29T22:36:43.252Z,96185.16
2022-07-29T22:39:10.769Z,96182.97
2022-07-29T22:41:43.017Z,96174.88
2022-07-29T22:44:11.913Z,96178.78
2022-07-29T22:46:39.557Z,96170.47
2022-07-29T22:49:07.178Z,96170.63
2022-07-29T22:51:35.536Z,96182.22
2022-07-29T22:54:03.737Z,96176.84
2022-07-29T22:56:31.805Z,96174.56
2022-07-29T22:58:59.336Z,96171.81
2022-07-29T23:01:37.221Z,96162.53
2022-07-29T23:04:05.826Z,96167.00
2022-07-29T23:06:34.077Z,96162.97
2022-07-29T23:09:01.626Z,96158.09
2022-07-29T23:11:29.209Z,96158.09
2022-07-29T23:13:56.744Z,96162.28
2022-07-29T23:16:26.809Z,96166.63
2022-07-29T23:18:56.212Z,96164.25
2022-07-29T23:21:24.506Z,96168.72
2022-07-29T23:23:52.001Z,96169.91
2022-07-29T23:26:19.644Z,96169.47
2022-07-29T23:28:47.259Z,96173.25
2022-07-29T23:31:14.828Z,96167.09
2022-07-29T23:33:42.767Z,96158.41
2022-07-29T23:36:11.646Z,96166.94
2022-07-29T23:38:40.779Z,96151.66
2022-07-29T23:41:09.597Z,96161.69
2022-07-29T23:43:37.237Z,96164.25
2022-07-29T23:46:06.377Z,96165.34
2022-07-29T23:48:34.638Z,96170.81
2022-07-29T23:51:02.169Z,96163.19
2022-07-29T23:53:30.992Z,96157.81
2022-07-29T23:55:58.494Z,96165.13
2022-07-29T23:58:25.953Z,96172.41
